createdAt,value
2022-11-16T00:00:53.261Z,87541.69
2022-11-16T00:03:38.175Z,87530.41
2022-11-16T00:06:22.750Z,87536.72
2022-11-16T00:09:07.563Z,87538.09
2022-11-16T00:11:52.261Z,87525.25
2022-11-16T00:14:37.036Z,87525.25
2022-11-16T00:17:21.798Z,87527.34
2022-11-16T00:20:06.640Z,87527.19
2022-11-16T00:22:51.421Z,87536.75
2022-11-16T00:25:36.144Z,87532.66
2022-11-16T00:28:20.892Z,87535.84
2022-11-16T00:31:05.495Z,87535.03
2022-11-16T00:33:50.317Z,87532.78
2022-11-16T00:36:35.065Z,87533.09
2022-11-16T00:39:19.912Z,87528.91
2022-11-16T00:42:04.653Z,87525.78
2022-11-16T00:44:49.433Z,87525.44
2022-11-16T00:47:34.021Z,87522.81
2022-11-16T00:50:18.935Z,87526.34
2022-11-16T00:53:03.640Z,87518.34
2022-11-16T00:55:48.460Z,87521.81
2022-11-16T00:58:33.522Z,87524.81
2022-11-16T01:01:18.481Z,87524.13
2022-11-16T01:04:03.286Z,87516.81
2022-11-16T01:06:47.973Z,87522.03
2022-11-16T01:09:32.793Z,87519.28
2022-11-16T01:12:17.470Z,87516.56
2022-11-16T01:15:02.225Z,87530.31
2022-11-16T01:17:46.896Z,87530.69
2022-11-16T01:20:31.716Z,87534.53
2022-11-16T01:23:16.368Z,87535.84
2022-11-16T01:26:01.295Z,87544.56
2022-11-16T01:28:46.177Z,87546.16
2022-11-16T01:31:30.936Z,87552.94
2022-11-16T01:34:15.795Z,87555.25
2022-11-16T01:37:00.574Z,87566.03
2022-11-16T01:39:45.359Z,87580.44
2022-11-16T01:42:30.045Z,87582.81
2022-11-16T01:45:14.764Z,87591.00
2022-11-16T01:47:59.610Z,87593.22
2022-11-16T01:50:44.604Z,87591.66
2022-11-16T01:53:29.292Z,87593.03
2022-11-16T01:56:14.171Z,87602.03
2022-11-16T01:58:59.194Z,87601.66
2022-11-16T02:01:44.061Z,87603.38
2022-11-16T02:04:28.806Z,87592.47
2022-11-16T02:07:13.600Z,87599.53
2022-11-16T02:09:58.538Z,87595.75
2022-11-16T02:12:43.291Z,87593.28
2022-11-16T02:15:28.171Z,87580.81
2022-11-16T02:18:12.955Z,87571.75
2022-11-16T02:20:57.697Z,87561.50
2022-11-16T02:23:42.551Z,87550.34
2022-11-16T02:26:27.211Z,87540.81
2022-11-16T02:29:12.016Z,87546.00
2022-11-16T02:31:56.798Z,87545.84
2022-11-16T02:34:41.542Z,87539.09
2022-11-16T02:37:26.285Z,87526.63
2022-11-16T02:40:11.041Z,87533.09
2022-11-16T02:42:55.699Z,87533.28
2022-11-16T02:45:40.638Z,87534.19
2022-11-16T02:48:25.328Z,87542.03
2022-11-16T02:51:10.152Z,87554.38
2022-11-16T02:53:54.880Z,87552.34
2022-11-16T02:56:39.610Z,87557.69
2022-11-16T02:59:24.309Z,87558.03
2022-11-16T03:02:09.069Z,87550.03
2022-11-16T03:04:53.957Z,87558.91
2022-11-16T03:07:38.728Z,87555.78
2022-11-16T03:10:23.540Z,87558.75
2022-11-16T03:13:08.328Z,87556.00
2022-11-16T03:15:53.172Z,87550.09
2022-11-16T03:18:37.818Z,87556.50
2022-11-16T03:21:22.698Z,87552.34
2022-11-16T03:24:07.529Z,87555.97
2022-11-16T03:26:52.194Z,87552.66
2022-11-16T03:29:36.960Z,87547.28
2022-11-16T03:32:21.575Z,87548.81
2022-11-16T03:35:06.451Z,87548.81
2022-11-16T03:37:51.077Z,87536.28
2022-11-16T03:40:36.001Z,87524.47
2022-11-16T03:43:20.667Z,87522.94
2022-11-16T03:46:05.351Z,87519.84
2022-11-16T03:48:50.051Z,87517.63
2022-11-16T03:51:34.958Z,87502.72
2022-11-16T03:54:19.743Z,87501.19
2022-11-16T03:57:04.517Z,87498.09
2022-11-16T03:59:49.430Z,87493.47
2022-11-16T04:02:34.140Z,87478.91
2022-11-16T04:05:18.970Z,87472.16
2022-11-16T04:08:04.127Z,87485.16
2022-11-16T04:10:48.830Z,87477.03
2022-11-16T04:13:33.677Z,87457.66
2022-11-16T04:16:18.361Z,87463.75
2022-11-16T04:19:03.136Z,87476.72
2022-11-16T04:21:47.959Z,87464.25
2022-11-16T04:24:32.740Z,87448.47
2022-11-16T04:27:17.487Z,87425.78
2022-11-16T04:30:02.239Z,87431.19
2022-11-16T04:32:47.079Z,87436.56
2022-11-16T04:35:31.886Z,87431.53
2022-11-16T04:38:16.649Z,87421.84
2022-11-16T04:41:01.357Z,87413.69
2022-11-16T04:43:46.057Z,87413.38
2022-11-16T04:46:30.908Z,87411.63
2022-11-16T04:49:15.625Z,87406.47
2022-11-16T04:52:00.612Z,87399.94
2022-11-16T04:54:45.434Z,87404.59
2022-11-16T04:57:30.223Z,87411.19
2022-11-16T05:00:15.067Z,87413.97
2022-11-16T05:03:01.505Z,87416.72
2022-11-16T05:05:46.632Z,87408.47
2022-11-16T05:08:31.501Z,87413.63
2022-11-16T05:11:16.425Z,87419.50
2022-11-16T05:14:01.259Z,87417.81
2022-11-16T05:16:46.025Z,87423.34
2022-11-16T05:19:30.729Z,87432.16
2022-11-16T05:22:15.527Z,87424.53
2022-11-16T05:25:00.349Z,87426.41
2022-11-16T05:27:45.106Z,87430.25
2022-11-16T05:30:29.951Z,87437.16
2022-11-16T05:33:14.728Z,87444.44
2022-11-16T05:35:59.418Z,87443.38
2022-11-16T05:38:44.123Z,87449.47
2022-11-16T05:41:28.969Z,87446.00
2022-11-16T05:44:13.751Z,87450.34
2022-11-16T05:46:58.485Z,87453.09
2022-11-16T05:49:43.310Z,87442.72
2022-11-16T05:52:27.973Z,87437.88
2022-11-16T05:55:12.839Z,87447.06
2022-11-16T05:57:57.657Z,87455.19
2022-11-16T06:00:42.338Z,87455.50
2022-11-16T06:03:27.026Z,87456.03
2022-11-16T06:06:11.651Z,87458.28
2022-11-16T06:08:56.430Z,87459.66
2022-11-16T06:11:41.146Z,87458.09
2022-11-16T06:14:25.923Z,87458.13
2022-11-16T06:17:10.687Z,87455.16
2022-11-16T06:19:55.760Z,87458.97
2022-11-16T06:22:40.620Z,87453.44
2022-11-16T06:25:25.545Z,87463.13
2022-11-16T06:28:10.216Z,87458.13
2022-11-16T06:30:55.046Z,87469.00
2022-11-16T06:33:39.703Z,87461.75
2022-11-16T06:36:24.344Z,87459.00
2022-11-16T06:39:09.086Z,87465.72
2022-11-16T06:41:53.857Z,87460.88
2022-11-16T06:44:38.623Z,87459.31
2022-11-16T06:47:23.338Z,87449.47
2022-11-16T06:50:08.147Z,87449.97
2022-11-16T06:52:52.781Z,87458.97
2022-11-16T06:55:37.611Z,87455.53
2022-11-16T06:58:22.217Z,87458.81
2022-11-16T07:01:06.944Z,87457.75
2022-11-16T07:03:51.718Z,87462.94
2022-11-16T07:06:36.443Z,87467.41
2022-11-16T07:09:21.093Z,87479.16
2022-11-16T07:12:05.919Z,87477.44
2022-11-16T07:14:50.715Z,87469.66
2022-11-16T07:17:35.501Z,87471.38
2022-11-16T07:20:20.304Z,87480.03
2022-11-16T07:23:06.319Z,87488.31
2022-11-16T07:25:52.792Z,87492.81
2022-11-16T07:28:39.923Z,87492.47
2022-11-16T07:31:26.821Z,87486.44
2022-11-16T07:34:11.678Z,87485.56
2022-11-16T07:36:56.319Z,87486.09
2022-11-16T07:39:41.143Z,87482.16
2022-11-16T07:42:25.854Z,87496.34
2022-11-16T07:45:10.452Z,87483.03
2022-11-16T07:47:55.285Z,87487.84
2022-11-16T07:50:39.942Z,87483.88
2022-11-16T07:53:24.865Z,87479.03
2022-11-16T07:56:09.718Z,87489.94
2022-11-16T07:58:54.523Z,87490.28
2022-11-16T08:01:39.433Z,87487.84
2022-11-16T08:04:24.875Z,87484.41
2022-11-16T08:07:09.648Z,87486.31
2022-11-16T08:09:55.057Z,87487.53
2022-11-16T08:12:39.690Z,87489.94
2022-11-16T08:15:24.440Z,87481.22
2022-11-16T08:18:09.295Z,87478.94
2022-11-16T08:20:54.052Z,87475.06
2022-11-16T08:23:38.915Z,87475.34
2022-11-16T08:26:23.645Z,87480.44
2022-11-16T08:29:08.512Z,87479.84
2022-11-16T08:31:53.153Z,87480.63
2022-11-16T08:34:38.069Z,87483.84
2022-11-16T08:37:22.722Z,87478.75
2022-11-16T08:40:07.549Z,87479.84
2022-11-16T08:42:52.336Z,87483.09
2022-11-16T08:45:37.060Z,87476.59
2022-11-16T08:48:21.821Z,87475.16
2022-11-16T08:51:22.003Z,87480.22
2022-11-16T08:54:07.013Z,87483.38
2022-11-16T08:56:51.824Z,87475.34
2022-11-16T08:59:36.770Z,87478.78
2022-11-16T09:02:21.396Z,87483.63
2022-11-16T09:05:06.404Z,87475.19
2022-11-16T09:07:51.075Z,87477.31
2022-11-16T09:10:35.799Z,87479.59
2022-11-16T09:13:20.564Z,87480.34
2022-11-16T09:16:05.242Z,87479.19
2022-11-16T09:18:50.119Z,87483.53
2022-11-16T09:21:34.887Z,87481.53
2022-11-16T09:24:19.753Z,87480.59
2022-11-16T09:27:04.398Z,87478.88
2022-11-16T09:29:49.204Z,87487.22
2022-11-16T09:32:33.832Z,87486.13
2022-11-16T09:35:18.521Z,87486.75
2022-11-16T09:38:03.197Z,87483.19
2022-11-16T09:40:48.378Z,87486.84
2022-11-16T09:43:33.402Z,87493.53
2022-11-16T09:46:18.479Z,87500.56
2022-11-16T09:49:03.402Z,87498.13
2022-11-16T09:51:48.187Z,87491.84
2022-11-16T09:54:33.053Z,87498.69
2022-11-16T09:57:17.748Z,87497.66
2022-11-16T10:00:02.461Z,87498.31
2022-11-16T10:02:47.171Z,87494.19
2022-11-16T10:05:31.872Z,87494.97
2022-11-16T10:08:16.668Z,87498.00
2022-11-16T10:11:01.613Z,87489.56
2022-11-16T10:13:46.305Z,87493.91
2022-11-16T10:16:31.283Z,87496.25
2022-11-16T10:19:16.570Z,87489.56
2022-11-16T10:22:01.158Z,87483.59
2022-11-16T10:24:46.219Z,87486.41
2022-11-16T10:27:30.944Z,87483.56
2022-11-16T10:30:15.716Z,87483.63
2022-11-16T10:33:00.420Z,87483.22
2022-11-16T10:35:45.211Z,87474.53
2022-11-16T10:38:30.165Z,87475.97
2022-11-16T10:41:15.014Z,87472.25
2022-11-16T10:43:59.795Z,87463.28
2022-11-16T10:46:44.407Z,87456.00
2022-11-16T10:49:29.290Z,87447.53
2022-11-16T10:52:13.866Z,87451.97
2022-11-16T10:54:58.731Z,87439.38
2022-11-16T10:57:43.449Z,87439.38
2022-11-16T11:00:28.181Z,87430.88
2022-11-16T11:03:12.762Z,87435.63
2022-11-16T11:05:57.549Z,87425.41
2022-11-16T11:08:42.148Z,87421.63
2022-11-16T11:11:26.891Z,87419.97
2022-11-16T11:14:11.744Z,87412.81
2022-11-16T11:16:56.484Z,87406.91
2022-11-16T11:19:41.386Z,87399.59
2022-11-16T11:22:26.125Z,87394.66
2022-11-16T11:25:10.942Z,87395.75
2022-11-16T11:27:55.653Z,87393.41
2022-11-16T11:30:40.458Z,87398.56
2022-11-16T11:33:25.111Z,87396.47
2022-11-16T11:36:09.928Z,87392.88
2022-11-16T11:38:54.688Z,87393.03
2022-11-16T11:41:39.855Z,87395.38
2022-11-16T11:44:24.661Z,87405.59
2022-11-16T11:50:14.619Z,87408.88
2022-11-16T11:52:59.949Z,87408.91
2022-11-16T11:55:44.635Z,87409.13
2022-11-16T11:58:29.491Z,87404.75
2022-11-16T12:01:14.145Z,87409.63
2022-11-16T12:03:58.960Z,87401.66
2022-11-16T12:06:44.294Z,87397.03
2022-11-16T12:09:29.309Z,87391.41
2022-11-16T12:12:14.941Z,87386.03
2022-11-16T12:15:00.123Z,87380.56
2022-11-16T12:17:44.817Z,87375.22
2022-11-16T12:20:29.433Z,87364.78
2022-11-16T12:23:14.158Z,87363.53
2022-11-16T12:25:58.843Z,87363.41
2022-11-16T12:28:47.108Z,87356.25
2022-11-16T12:31:34.923Z,87342.63
2022-11-16T12:34:19.617Z,87327.06
2022-11-16T12:37:04.452Z,87320.00
2022-11-16T12:39:49.357Z,87321.69
2022-11-16T12:42:34.015Z,87318.97
2022-11-16T12:45:18.737Z,87327.66
2022-11-16T12:48:03.419Z,87324.19
2022-11-16T12:50:48.227Z,87316.78
2022-11-16T12:53:33.201Z,87306.72
2022-11-16T12:56:18.206Z,87305.75
2022-11-16T12:59:03.025Z,87309.84
2022-11-16T13:01:47.691Z,87311.56
2022-11-16T13:04:32.344Z,87315.34
2022-11-16T13:07:17.141Z,87301.78
2022-11-16T13:10:02.331Z,87308.97
2022-11-16T13:12:47.156Z,87306.78
2022-11-16T13:15:31.972Z,87299.34
2022-11-16T13:18:16.700Z,87300.06
2022-11-16T13:21:01.751Z,87290.59
2022-11-16T13:23:46.771Z,87287.03
2022-11-16T13:26:31.609Z,87283.44
2022-11-16T13:29:16.855Z,87274.25
2022-11-16T13:32:01.573Z,87282.09
2022-11-16T13:34:46.246Z,87283.06
2022-11-16T13:37:31.217Z,87283.47
2022-11-16T13:40:16.313Z,87274.00
2022-11-16T13:43:01.498Z,87281.25
2022-11-16T13:45:46.404Z,87273.19
2022-11-16T13:48:31.085Z,87264.50
2022-11-16T13:51:16.316Z,87263.09
2022-11-16T13:57:05.956Z,87271.50
2022-11-16T13:59:51.069Z,87275.22
2022-11-16T14:02:35.651Z,87274.09
2022-11-16T14:05:20.431Z,87274.00
2022-11-16T14:08:05.196Z,87285.94
2022-11-16T14:10:50.035Z,87286.63
2022-11-16T14:13:35.230Z,87293.19
2022-11-16T14:16:20.713Z,87296.47
2022-11-16T14:19:05.536Z,87292.28
2022-11-16T14:21:50.240Z,87289.63
2022-11-16T14:24:35.101Z,87290.00
2022-11-16T14:27:19.697Z,87287.78
2022-11-16T14:30:04.441Z,87288.75
2022-11-16T14:32:49.165Z,87278.03
2022-11-16T14:35:33.802Z,87277.75
2022-11-16T14:38:18.500Z,87273.38
2022-11-16T14:41:03.239Z,87267.78
2022-11-16T14:43:49.128Z,87266.72
2022-11-16T14:46:33.754Z,87264.13
2022-11-16T14:49:18.551Z,87258.78
2022-11-16T14:52:03.275Z,87257.56
2022-11-16T14:54:48.158Z,87247.94
2022-11-16T14:57:32.783Z,87251.25
2022-11-16T15:00:17.728Z,87251.41
2022-11-16T15:03:03.140Z,87250.84
2022-11-16T15:05:48.478Z,87253.03
2022-11-16T15:08:33.196Z,87257.25
2022-11-16T15:11:17.924Z,87266.69
2022-11-16T15:14:02.695Z,87258.78
2022-11-16T15:16:47.333Z,87261.91
2022-11-16T15:19:32.127Z,87259.91
2022-11-16T15:22:17.238Z,87267.59
2022-11-16T15:25:02.257Z,87261.00
2022-11-16T15:27:47.139Z,87261.72
2022-11-16T15:30:32.479Z,87264.84
2022-11-16T15:33:17.680Z,87272.50
2022-11-16T15:36:02.399Z,87272.38
2022-11-16T15:38:47.278Z,87275.22
2022-11-16T15:41:31.916Z,87278.38
2022-11-16T15:44:17.396Z,87275.59
2022-11-16T15:47:02.481Z,87278.09
2022-11-16T15:49:47.201Z,87268.75
2022-11-16T15:52:31.849Z,87270.50
2022-11-16T15:55:16.737Z,87267.44
2022-11-16T15:58:01.403Z,87262.34
2022-11-16T16:00:46.070Z,87261.03
2022-11-16T16:03:30.783Z,87262.03
2022-11-16T16:06:15.404Z,87261.44
2022-11-16T16:09:00.242Z,87255.34
2022-11-16T16:11:45.229Z,87254.19
2022-11-16T16:14:29.950Z,87257.25
2022-11-16T16:17:14.732Z,87255.41
2022-11-16T16:19:59.453Z,87248.53
2022-11-16T16:22:44.166Z,87260.78
2022-11-16T16:25:28.982Z,87261.41
2022-11-16T16:28:13.746Z,87259.78
2022-11-16T16:30:58.640Z,87266.50
2022-11-16T16:33:43.357Z,87265.25
2022-11-16T16:36:28.140Z,87260.66
2022-11-16T16:39:12.962Z,87261.41
2022-11-16T16:41:57.637Z,87258.38
2022-11-16T16:44:42.543Z,87254.19
2022-11-16T16:47:27.182Z,87247.22
2022-11-16T16:50:11.894Z,87249.34
2022-11-16T16:52:56.655Z,87246.97
2022-11-16T16:55:41.569Z,87242.69
2022-11-16T16:58:26.377Z,87248.94
2022-11-16T17:01:11.619Z,87249.63
2022-11-16T17:03:56.445Z,87254.66
2022-11-16T17:06:46.225Z,87259.88
2022-11-16T17:09:31.572Z,87253.13
2022-11-16T17:12:16.329Z,87256.28
2022-11-16T17:15:01.048Z,87247.63
2022-11-16T17:17:45.859Z,87248.66
2022-11-16T17:20:30.777Z,87258.72
2022-11-16T17:23:15.632Z,87262.06
2022-11-16T17:26:00.326Z,87262.50
2022-11-16T17:28:45.078Z,87257.69
2022-11-16T17:31:29.842Z,87272.63
2022-11-16T17:34:14.747Z,87265.78
2022-11-16T17:36:59.985Z,87272.56
2022-11-16T17:39:44.645Z,87266.03
2022-11-16T17:42:29.449Z,87268.28
2022-11-16T17:45:14.240Z,87268.22
2022-11-16T17:47:59.013Z,87259.47
2022-11-16T17:50:43.777Z,87252.53
2022-11-16T17:53:32.688Z,87259.69
2022-11-16T17:56:17.923Z,87258.13
2022-11-16T17:59:03.808Z,87250.16
2022-11-16T18:01:48.672Z,87247.41
2022-11-16T18:04:33.526Z,87231.47
2022-11-16T18:07:18.323Z,87233.03
2022-11-16T18:10:02.896Z,87233.47
2022-11-16T18:12:47.748Z,87231.00
2022-11-16T18:15:34.490Z,87219.00
2022-11-16T18:18:21.347Z,87222.34
2022-11-16T18:21:06.112Z,87220.75
2022-11-16T18:23:50.873Z,87218.16
2022-11-16T18:26:35.658Z,87221.59
2022-11-16T18:29:20.376Z,87219.22
2022-11-16T18:32:05.148Z,87224.25
2022-11-16T18:34:49.946Z,87226.16
2022-11-16T18:37:34.737Z,87233.47
2022-11-16T18:40:19.658Z,87231.72
2022-11-16T18:43:04.779Z,87222.84
2022-11-16T18:45:49.588Z,87218.75
2022-11-16T18:48:34.231Z,87215.25
2022-11-16T18:51:19.141Z,87195.53
2022-11-16T18:54:03.890Z,87190.81
2022-11-16T18:56:48.615Z,87204.66
2022-11-16T18:59:33.342Z,87197.75
2022-11-16T19:02:18.110Z,87197.97
2022-11-16T19:05:02.975Z,87201.94
2022-11-16T19:07:47.601Z,87205.91
2022-11-16T19:10:32.551Z,87202.94
2022-11-16T19:13:17.273Z,87202.09
2022-11-16T19:16:02.017Z,87217.53
2022-11-16T19:18:46.598Z,87213.91
2022-11-16T19:21:31.453Z,87211.91
2022-11-16T19:24:16.108Z,87209.22
2022-11-16T19:27:01.018Z,87222.41
2022-11-16T19:29:45.771Z,87214.97
2022-11-16T19:32:30.562Z,87213.44
2022-11-16T19:35:15.391Z,87196.78
2022-11-16T19:38:00.128Z,87191.25
2022-11-16T19:40:44.892Z,87187.78
2022-11-16T19:43:29.685Z,87191.91
2022-11-16T19:46:14.545Z,87193.81
2022-11-16T19:48:59.177Z,87185.66
2022-11-16T19:51:44.046Z,87184.13
2022-11-16T19:54:28.911Z,87192.69
2022-11-16T19:57:13.708Z,87202.69
2022-11-16T19:59:58.475Z,87202.41
2022-11-16T20:02:43.176Z,87194.66
2022-11-16T20:05:28.077Z,87190.50
2022-11-16T20:08:12.781Z,87201.19
2022-11-16T20:10:57.609Z,87202.47
2022-11-16T20:13:42.271Z,87193.81
2022-11-16T20:16:27.070Z,87202.97
2022-11-16T20:19:11.647Z,87194.50
2022-11-16T20:21:56.331Z,87192.63
2022-11-16T20:24:40.977Z,87187.44
2022-11-16T20:27:25.808Z,87180.22
2022-11-16T20:30:10.646Z,87169.63
2022-11-16T20:32:55.261Z,87160.97
2022-11-16T20:35:40.076Z,87161.28
2022-11-16T20:38:24.705Z,87149.53
2022-11-16T20:41:09.544Z,87145.69
2022-11-16T20:43:54.227Z,87145.38
2022-11-16T20:46:38.990Z,87146.25
2022-11-16T20:49:23.661Z,87150.69
2022-11-16T20:52:08.491Z,87154.84
2022-11-16T20:54:53.211Z,87156.94
2022-11-16T20:57:37.952Z,87151.41
2022-11-16T21:00:22.582Z,87158.88
2022-11-16T21:03:07.493Z,87156.94
2022-11-16T21:05:52.140Z,87156.88
2022-11-16T21:08:36.974Z,87162.34
2022-11-16T21:11:21.737Z,87163.88
2022-11-16T21:14:06.484Z,87166.72
2022-11-16T21:16:51.238Z,87170.31
2022-11-16T21:19:35.894Z,87155.53
2022-11-16T21:22:20.690Z,87157.75
2022-11-16T21:25:05.275Z,87155.28
2022-11-16T21:27:50.110Z,87160.47
2022-11-16T21:30:34.773Z,87165.03
2022-11-16T21:33:19.462Z,87158.03
2022-11-16T21:36:04.328Z,87163.25
2022-11-16T21:38:49.011Z,87159.84
2022-11-16T21:41:33.802Z,87154.22
2022-11-16T21:44:18.572Z,87145.56
2022-11-16T21:47:03.282Z,87145.94
2022-11-16T21:50:16.966Z,87134.69
2022-11-16T21:52:52.732Z,87141.38
2022-11-16T21:55:37.446Z,87145.31
2022-11-16T21:58:22.141Z,87134.00
2022-11-16T22:01:06.917Z,87129.59
2022-11-16T22:03:51.685Z,87122.25
2022-11-16T22:06:36.408Z,87138.31
2022-11-16T22:09:21.071Z,87122.34
2022-11-16T22:12:05.947Z,87117.47
2022-11-16T22:14:50.501Z,87124.44
2022-11-16T22:17:35.275Z,87123.81
2022-11-16T22:20:20.037Z,87112.69
2022-11-16T22:23:04.645Z,87119.47
2022-11-16T22:25:49.869Z,87119.47
2022-11-16T22:28:35.056Z,87129.03
2022-11-16T22:31:19.912Z,87112.13
2022-11-16T22:34:04.645Z,87115.78
2022-11-16T22:36:49.367Z,87113.19
2022-11-16T22:39:34.120Z,87122.88
2022-11-16T22:42:18.944Z,87130.81
2022-11-16T22:45:03.614Z,87128.47
2022-11-16T22:47:52.111Z,87131.97
2022-11-16T22:50:39.699Z,87137.41
2022-11-16T22:53:24.440Z,87137.06
2022-11-16T22:56:09.335Z,87149.00
2022-11-16T22:58:54.307Z,87154.28
2022-11-16T23:01:39.013Z,87164.25
2022-11-16T23:04:23.657Z,87154.81
2022-11-16T23:07:08.375Z,87160.00
2022-11-16T23:09:53.188Z,87176.22
2022-11-16T23:12:37.874Z,87180.88
2022-11-16T23:15:22.666Z,87178.44
2022-11-16T23:18:07.336Z,87183.88
2022-11-16T23:20:52.116Z,87181.09
2022-11-16T23:23:37.193Z,87182.03
2022-11-16T23:26:21.960Z,87180.28
2022-11-16T23:29:06.791Z,87167.72
2022-11-16T23:31:51.470Z,87177.06
2022-11-16T23:34:36.227Z,87168.25
2022-11-16T23:37:20.919Z,87158.25
2022-11-16T23:40:05.763Z,87163.22
2022-11-16T23:42:50.455Z,87165.06
2022-11-16T23:45:35.116Z,87157.94
2022-11-16T23:48:19.849Z,87156.94
2022-11-16T23:51:04.731Z,87162.53
2022-11-16T23:53:49.507Z,87168.44
2022-11-16T23:56:34.252Z,87148.16
2022-11-16T23:59:19.127Z,87157.88
